createdAt,value
2019-01-26T00:00:31.915Z,0.60
2019-01-26T00:03:00.993Z,0.70
2019-01-26T00:05:30.221Z,0.70
2019-01-26T00:07:59.190Z,0.70
2019-01-26T00:12:56.812Z,0.70
2019-01-26T00:15:25.911Z,0.70
2019-01-26T00:17:54.890Z,0.70
2019-01-26T00:20:23.857Z,0.70
2019-01-26T00:22:52.996Z,0.70
2019-01-26T00:25:22.013Z,0.70
2019-01-26T00:30:19.650Z,0.70
2019-01-26T00:32:48.717Z,0.70
2019-01-26T00:35:17.796Z,0.70
2019-01-26T00:37:46.767Z,0.80
2019-01-26T00:40:15.769Z,0.80
2019-01-26T00:42:44.798Z,0.80
2019-01-26T00:45:13.881Z,0.80
2019-01-26T00:47:42.928Z,0.80
2019-01-26T00:50:12.090Z,0.80
2019-01-26T00:52:41.130Z,0.70
2019-01-26T00:55:10.248Z,0.60
2019-01-26T00:57:39.272Z,0.50
2019-01-26T01:00:10.700Z,0.50
2019-01-26T01:02:39.789Z,0.50
2019-01-26T01:05:08.981Z,0.50
2019-01-26T01:07:38.035Z,0.40
2019-01-26T01:10:08.197Z,0.30
2019-01-26T01:12:37.196Z,0.30
2019-01-26T01:15:06.500Z,0.30
2019-01-26T01:17:35.440Z,0.20
2019-01-26T01:20:05.261Z,0.20
2019-01-26T01:22:34.272Z,0.20
2019-01-26T01:25:03.317Z,0.20
2019-01-26T01:27:32.373Z,0.20
2019-01-26T01:30:01.350Z,0.20
2019-01-26T01:32:30.402Z,0.20
2019-01-26T01:34:59.593Z,0.20
2019-01-26T01:37:28.579Z,0.30
2019-01-26T01:39:57.666Z,0.20
2019-01-26T01:42:26.695Z,0.20
2019-01-26T01:44:55.699Z,0.20
2019-01-26T01:47:24.557Z,0.10
2019-01-26T01:49:53.611Z,0.20
2019-01-26T01:52:22.738Z,0.30
2019-01-26T01:54:51.777Z,0.30
2019-01-26T01:57:20.792Z,0.30
2019-01-26T01:59:49.859Z,0.30
2019-01-26T02:02:18.896Z,0.30
2019-01-26T02:04:47.955Z,0.30
2019-01-26T02:07:16.856Z,0.30
2019-01-26T02:09:45.948Z,0.30
2019-01-26T02:12:14.989Z,0.20
2019-01-26T02:14:44.088Z,0.20
2019-01-26T02:17:13.065Z,0.20
2019-01-26T02:19:42.037Z,0.20
2019-01-26T02:22:11.040Z,0.20
2019-01-26T02:24:40.010Z,0.20
2019-01-26T02:27:09.045Z,0.10
2019-01-26T02:29:38.081Z,0.10
2019-01-26T02:32:07.117Z,0.00
2019-01-26T02:34:36.141Z,0.10
2019-01-26T02:37:05.200Z,0.20
2019-01-26T02:39:34.169Z,0.30
2019-01-26T02:42:03.233Z,0.30
2019-01-26T02:44:32.187Z,0.40
2019-01-26T02:47:01.216Z,0.40
2019-01-26T02:49:30.263Z,0.40
2019-01-26T02:51:59.387Z,0.40
2019-01-26T02:54:28.440Z,0.50
2019-01-26T02:56:57.495Z,0.50
2019-01-26T02:59:26.546Z,0.50
2019-01-26T03:01:55.595Z,0.50
2019-01-26T03:04:24.468Z,0.60
2019-01-26T03:06:53.539Z,0.60
2019-01-26T03:09:22.569Z,0.70
2019-01-26T03:11:51.527Z,0.60
2019-01-26T03:14:20.660Z,0.70
2019-01-26T03:16:49.607Z,0.70
2019-01-26T03:19:18.593Z,0.80
2019-01-26T03:21:47.624Z,0.70
2019-01-26T03:24:16.684Z,0.80
2019-01-26T03:26:45.703Z,0.80
2019-01-26T03:29:14.707Z,0.90
2019-01-26T03:31:43.733Z,0.90
2019-01-26T03:34:12.820Z,0.90
2019-01-26T03:36:41.848Z,0.90
2019-01-26T03:39:10.885Z,1.00
2019-01-26T03:41:39.829Z,1.00
2019-01-26T03:44:08.728Z,1.10
2019-01-26T03:46:37.761Z,1.10
2019-01-26T03:49:06.759Z,1.20
2019-01-26T03:51:35.609Z,1.20
2019-01-26T03:54:04.618Z,1.30
2019-01-26T03:56:33.563Z,1.30
2019-01-26T03:59:02.616Z,1.30
2019-01-26T04:01:31.600Z,1.40
2019-01-26T04:04:00.565Z,1.40
2019-01-26T04:06:29.530Z,1.40
2019-01-26T04:08:58.525Z,1.50
2019-01-26T04:11:27.585Z,1.50
2019-01-26T04:13:56.656Z,1.60
2019-01-26T04:16:25.673Z,1.50
2019-01-26T04:18:54.976Z,1.50
2019-01-26T04:21:23.943Z,1.60
2019-01-26T04:23:53.024Z,1.70
2019-01-26T04:26:21.918Z,1.80
2019-01-26T04:28:50.823Z,1.70
2019-01-26T04:31:19.872Z,1.80
2019-01-26T04:33:48.834Z,1.80
2019-01-26T04:36:17.782Z,1.80
2019-01-26T04:38:46.899Z,1.90
2019-01-26T04:41:15.993Z,1.90
2019-01-26T04:43:45.005Z,2.00
2019-01-26T04:46:14.125Z,2.00
2019-01-26T04:48:43.120Z,2.00
2019-01-26T04:51:12.145Z,2.00
2019-01-26T04:53:41.125Z,2.00
2019-01-26T04:56:10.100Z,2.00
2019-01-26T04:58:39.358Z,2.10
2019-01-26T05:01:08.416Z,2.10
2019-01-26T05:03:37.367Z,2.20
2019-01-26T05:06:06.491Z,2.20
2019-01-26T05:08:35.452Z,2.10
2019-01-26T05:11:04.449Z,2.20
2019-01-26T05:13:33.514Z,2.20
2019-01-26T05:16:02.450Z,2.30
2019-01-26T05:18:31.600Z,2.30
2019-01-26T05:21:00.643Z,2.30
2019-01-26T05:23:29.692Z,2.30
2019-01-26T05:25:58.660Z,2.30
2019-01-26T05:28:27.550Z,2.30
2019-01-26T05:30:56.517Z,2.30
2019-01-26T05:33:25.493Z,2.30
2019-01-26T05:35:54.562Z,2.40
2019-01-26T05:38:23.528Z,2.30
2019-01-26T05:40:52.497Z,2.40
2019-01-26T05:43:21.508Z,2.40
2019-01-26T05:45:50.475Z,2.40
2019-01-26T05:48:19.515Z,2.40
2019-01-26T05:50:48.809Z,2.40
2019-01-26T05:53:17.824Z,2.40
2019-01-26T05:55:46.856Z,2.40
2019-01-26T05:58:15.901Z,2.40
2019-01-26T06:00:44.952Z,2.40
2019-01-26T06:03:13.963Z,2.50
2019-01-26T06:05:42.986Z,2.50
2019-01-26T06:08:11.997Z,2.50
2019-01-26T06:10:40.972Z,2.50
2019-01-26T06:13:10.540Z,2.60
2019-01-26T06:15:39.545Z,2.60
2019-01-26T06:18:08.583Z,2.60
2019-01-26T06:20:37.481Z,2.60
2019-01-26T06:23:06.535Z,2.70
2019-01-26T06:25:35.514Z,2.70
2019-01-26T06:28:04.473Z,2.70
2019-01-26T06:30:33.583Z,2.70
2019-01-26T06:33:02.620Z,2.80
2019-01-26T06:35:31.652Z,2.80
2019-01-26T06:38:00.644Z,2.80
2019-01-26T06:42:58.240Z,2.90
2019-01-26T06:45:27.317Z,2.90
2019-01-26T06:48:02.042Z,2.90
2019-01-26T06:50:28.540Z,3.00
2019-01-26T06:52:57.594Z,3.00
2019-01-26T06:55:26.607Z,3.00
2019-01-26T06:57:55.545Z,3.00
2019-01-26T07:00:28.749Z,3.00
2019-01-26T07:02:57.873Z,3.00
2019-01-26T07:05:46.024Z,3.10
2019-01-26T07:08:19.340Z,3.10
2019-01-26T07:10:48.418Z,3.00
2019-01-26T07:13:17.428Z,3.00
2019-01-26T07:15:46.450Z,3.00
2019-01-26T07:18:15.432Z,3.10
2019-01-26T07:20:44.460Z,3.20
2019-01-26T07:23:13.727Z,3.10
2019-01-26T07:25:52.267Z,3.20
2019-01-26T07:28:21.228Z,3.20
2019-01-26T07:30:50.247Z,3.20
2019-01-26T07:33:19.256Z,3.20
2019-01-26T07:35:48.280Z,3.20
2019-01-26T07:38:17.268Z,3.20
2019-01-26T07:40:46.331Z,3.30
2019-01-26T07:43:15.398Z,3.20
2019-01-26T07:45:44.459Z,3.30
2019-01-26T07:48:16.828Z,3.30
2019-01-26T07:50:44.295Z,3.30
2019-01-26T07:53:13.228Z,3.30
2019-01-26T07:55:42.203Z,3.40
2019-01-26T07:58:11.285Z,3.40
2019-01-26T08:00:40.244Z,3.50
2019-01-26T08:03:09.304Z,3.50
2019-01-26T08:05:38.336Z,3.50
2019-01-26T08:08:07.323Z,3.40
2019-01-26T08:10:36.328Z,3.50
2019-01-26T08:13:05.657Z,3.50
2019-01-26T08:15:38.551Z,3.50
2019-01-26T08:18:09.011Z,3.40
2019-01-26T08:20:37.968Z,3.60
2019-01-26T08:23:07.040Z,3.50
2019-01-26T08:25:36.161Z,3.70
2019-01-26T08:28:05.241Z,3.80
2019-01-26T08:30:34.276Z,3.90
2019-01-26T08:33:03.357Z,3.90
2019-01-26T08:35:32.372Z,3.90
2019-01-26T08:38:01.427Z,4.00
2019-01-26T08:40:30.617Z,4.00
2019-01-26T08:42:59.685Z,4.00
2019-01-26T08:45:28.703Z,3.90
2019-01-26T08:47:57.696Z,3.90
2019-01-26T08:50:26.843Z,3.90
2019-01-26T08:52:55.887Z,3.90
2019-01-26T08:55:25.048Z,3.90
2019-01-26T08:57:54.088Z,3.90
2019-01-26T09:00:25.196Z,3.90
2019-01-26T09:03:13.573Z,4.00
2019-01-26T09:06:12.089Z,4.10
2019-01-26T09:08:41.334Z,4.10
2019-01-26T09:11:10.432Z,4.10
2019-01-26T09:13:39.415Z,4.20
2019-01-26T09:16:08.523Z,4.20
2019-01-26T09:18:39.009Z,4.20
2019-01-26T09:21:08.353Z,4.30
2019-01-26T09:23:37.324Z,4.30
2019-01-26T09:26:06.422Z,4.30
2019-01-26T09:28:35.384Z,4.40
2019-01-26T09:31:04.408Z,4.40
2019-01-26T09:33:33.402Z,4.40
2019-01-26T09:36:02.444Z,4.40
2019-01-26T09:38:31.520Z,4.30
2019-01-26T09:42:10.004Z,4.40
2019-01-26T09:44:39.238Z,4.40
2019-01-26T09:47:08.268Z,4.40
2019-01-26T09:49:37.330Z,4.40
2019-01-26T09:52:06.318Z,4.50
2019-01-26T09:54:35.365Z,4.50
2019-01-26T09:57:04.420Z,4.70
2019-01-26T09:59:33.676Z,4.70
2019-01-26T10:02:02.669Z,4.90
2019-01-26T10:04:31.637Z,5.00
2019-01-26T10:07:01.087Z,4.90
2019-01-26T10:09:30.091Z,5.20
2019-01-26T10:11:59.202Z,5.20
2019-01-26T10:14:28.278Z,5.30
2019-01-26T10:16:57.437Z,5.40
2019-01-26T10:19:26.441Z,5.40
2019-01-26T10:21:55.688Z,5.30
2019-01-26T10:24:24.739Z,5.30
2019-01-26T10:26:53.904Z,5.30
2019-01-26T10:29:22.888Z,5.30
2019-01-26T10:31:51.941Z,5.40
2019-01-26T10:34:21.063Z,5.40
2019-01-26T10:36:55.239Z,5.50
2019-01-26T10:39:24.271Z,5.50
2019-01-26T10:41:59.344Z,5.60
2019-01-26T10:44:32.718Z,5.60
2019-01-26T10:47:01.754Z,5.70
2019-01-26T10:49:30.881Z,5.70
2019-01-26T10:52:00.013Z,5.80
2019-01-26T10:58:17.616Z,6.80
2019-01-26T11:00:46.678Z,7.00
2019-01-26T11:03:15.626Z,7.30
2019-01-26T11:05:44.725Z,7.10
2019-01-26T11:08:13.729Z,7.40
2019-01-26T11:10:42.869Z,7.50
2019-01-26T11:13:11.968Z,7.40
2019-01-26T11:15:40.973Z,7.40
2019-01-26T11:18:09.989Z,7.30
2019-01-26T11:20:39.203Z,7.50
2019-01-26T11:23:08.234Z,7.50
2019-01-26T11:25:38.374Z,7.60
2019-01-26T11:28:07.423Z,7.50
2019-01-26T11:30:37.192Z,7.20
2019-01-26T11:33:06.231Z,7.00
2019-01-26T11:35:35.253Z,7.10
2019-01-26T11:38:04.343Z,6.90
2019-01-26T11:40:33.424Z,6.80
2019-01-26T11:43:02.567Z,6.90
2019-01-26T11:46:02.956Z,7.00
2019-01-26T11:48:34.881Z,7.20
2019-01-26T11:51:13.141Z,7.30
2019-01-26T11:53:42.203Z,7.40
2019-01-26T11:56:20.961Z,7.60
2019-01-26T11:58:49.984Z,7.60
2019-01-26T12:01:37.975Z,7.70
2019-01-26T12:04:26.017Z,8.10
2019-01-26T12:07:12.901Z,8.80
2019-01-26T12:09:41.998Z,8.90
2019-01-26T12:12:11.023Z,8.80
2019-01-26T12:14:40.065Z,8.80
2019-01-26T12:17:09.188Z,8.60
2019-01-26T12:19:38.430Z,7.80
2019-01-26T12:22:07.508Z,7.80
2019-01-26T12:24:36.701Z,8.10
2019-01-26T12:27:05.776Z,7.70
2019-01-26T12:29:34.779Z,7.40
2019-01-26T12:32:04.058Z,7.30
2019-01-26T12:34:33.080Z,7.40
2019-01-26T12:37:02.059Z,7.50
2019-01-26T12:39:31.624Z,8.10
2019-01-26T12:42:00.595Z,8.50
2019-01-26T12:44:29.685Z,8.20
2019-01-26T12:46:58.722Z,7.80
2019-01-26T12:49:29.706Z,7.70
2019-01-26T12:51:58.541Z,7.80
2019-01-26T12:54:27.662Z,8.00
2019-01-26T12:56:56.702Z,8.10
2019-01-26T12:59:25.848Z,8.00
2019-01-26T13:01:54.980Z,8.30
2019-01-26T13:04:24.103Z,8.50
2019-01-26T13:06:53.128Z,8.70
2019-01-26T13:09:22.192Z,7.90
2019-01-26T13:11:51.264Z,7.70
2019-01-26T13:14:20.445Z,7.70
2019-01-26T13:16:49.487Z,8.10
2019-01-26T13:19:18.637Z,8.40
2019-01-26T13:21:47.684Z,8.00
2019-01-26T13:24:16.680Z,7.70
2019-01-26T13:26:45.892Z,7.80
2019-01-26T13:29:15.012Z,7.70
2019-01-26T13:31:44.128Z,7.60
2019-01-26T13:34:13.280Z,7.50
2019-01-26T13:36:42.260Z,7.40
2019-01-26T13:39:11.348Z,7.30
2019-01-26T13:41:40.649Z,7.70
2019-01-26T13:44:09.673Z,8.10
2019-01-26T13:46:38.648Z,8.00
2019-01-26T13:49:07.689Z,8.10
2019-01-26T13:51:36.701Z,8.00
2019-01-26T13:54:05.992Z,7.70
2019-01-26T13:56:35.061Z,7.30
2019-01-26T13:59:04.113Z,7.10
2019-01-26T14:01:33.299Z,7.10
2019-01-26T14:04:02.282Z,7.00
2019-01-26T14:06:31.376Z,6.90
2019-01-26T14:09:00.373Z,6.90
2019-01-26T14:11:29.663Z,6.80
2019-01-26T14:13:58.589Z,6.80
2019-01-26T14:16:27.595Z,6.70
2019-01-26T14:18:56.672Z,6.60
2019-01-26T14:21:25.848Z,6.50
2019-01-26T14:23:54.916Z,6.60
2019-01-26T14:26:23.853Z,6.70
2019-01-26T14:28:52.905Z,6.60
2019-01-26T14:31:22.189Z,6.50
2019-01-26T14:33:51.236Z,6.50
2019-01-26T14:36:20.351Z,6.50
2019-01-26T14:38:49.386Z,6.50
2019-01-26T14:41:18.572Z,6.40
2019-01-26T14:43:47.632Z,6.40
2019-01-26T14:46:16.769Z,6.40
2019-01-26T14:48:45.861Z,6.30
2019-01-26T14:51:16.435Z,6.30
2019-01-26T14:53:47.806Z,6.30
2019-01-26T14:56:16.431Z,6.40
2019-01-26T14:58:45.478Z,6.40
2019-01-26T15:01:14.870Z,6.40
2019-01-26T15:03:43.915Z,6.40
2019-01-26T15:06:13.013Z,6.30
2019-01-26T15:08:42.061Z,6.30
2019-01-26T15:11:11.174Z,6.20
2019-01-26T15:13:40.285Z,6.10
2019-01-26T15:16:09.415Z,6.10
2019-01-26T15:18:38.458Z,6.10
2019-01-26T15:21:10.237Z,6.10
2019-01-26T15:23:39.281Z,6.10
2019-01-26T15:26:08.280Z,6.10
2019-01-26T15:28:42.934Z,6.00
2019-01-26T15:31:08.156Z,6.00
2019-01-26T15:33:37.206Z,6.00
2019-01-26T15:36:09.086Z,5.90
2019-01-26T15:38:37.153Z,5.80
2019-01-26T15:41:06.216Z,5.80
2019-01-26T15:43:35.281Z,5.90
2019-01-26T15:46:04.416Z,5.90
2019-01-26T15:48:33.446Z,5.90
2019-01-26T15:51:02.541Z,5.90
2019-01-26T15:53:31.602Z,5.90
2019-01-26T15:59:14.056Z,5.90
2019-01-26T16:04:56.286Z,5.90
2019-01-26T16:10:38.561Z,5.90
2019-01-26T16:25:15.455Z,5.90
2019-01-26T16:28:03.704Z,5.90
2019-01-26T16:30:45.122Z,6.00
2019-01-26T16:33:25.781Z,6.00
2019-01-26T16:36:06.378Z,5.90
2019-01-26T16:38:46.942Z,5.90
2019-01-26T16:41:28.341Z,5.90
2019-01-26T16:44:09.049Z,5.90
2019-01-26T16:46:50.300Z,5.90
2019-01-26T16:49:30.749Z,5.90
2019-01-26T16:52:14.086Z,5.90
2019-01-26T16:54:54.235Z,5.80
2019-01-26T16:57:34.874Z,5.90
2019-01-26T17:00:16.242Z,5.80
2019-01-26T17:02:57.060Z,5.80
2019-01-26T17:05:37.796Z,5.80
2019-01-26T17:08:18.761Z,5.80
2019-01-26T17:10:59.446Z,5.80
2019-01-26T17:13:40.271Z,5.70
2019-01-26T17:16:20.863Z,5.70
2019-01-26T17:19:01.706Z,5.70
2019-01-26T17:21:42.650Z,5.70
2019-01-26T17:24:24.026Z,5.70
2019-01-26T17:27:04.777Z,5.70
2019-01-26T17:29:45.589Z,5.70
2019-01-26T17:32:26.405Z,5.70
2019-01-26T17:35:07.725Z,5.70
2019-01-26T17:37:48.521Z,5.80
2019-01-26T17:40:29.235Z,5.70
2019-01-26T17:43:10.221Z,5.60
2019-01-26T17:45:51.267Z,5.60
2019-01-26T17:48:32.607Z,5.60
2019-01-26T17:51:13.478Z,5.60
2019-01-26T17:53:54.276Z,5.60
2019-01-26T17:56:35.037Z,5.60
2019-01-26T17:59:15.834Z,5.60
2019-01-26T18:01:56.682Z,5.70
2019-01-26T18:04:37.990Z,5.70
2019-01-26T18:07:18.584Z,5.70
2019-01-26T18:09:59.246Z,5.60
2019-01-26T18:12:39.684Z,5.60
2019-01-26T18:15:20.614Z,5.50
2019-01-26T18:18:01.889Z,5.50
2019-01-26T18:20:48.948Z,5.40
2019-01-26T18:23:28.808Z,5.40
2019-01-26T18:26:09.805Z,5.50
2019-01-26T18:28:50.876Z,5.50
2019-01-26T18:31:31.317Z,5.50
2019-01-26T18:34:12.100Z,5.50
2019-01-26T18:36:53.381Z,5.50
2019-01-26T18:39:34.663Z,5.50
2019-01-26T18:42:15.936Z,5.50
2019-01-26T18:44:56.557Z,5.50
2019-01-26T18:47:35.985Z,5.50
2019-01-26T18:59:33.579Z,5.50
2019-01-26T19:02:14.330Z,5.50
2019-01-26T19:04:55.553Z,5.50
2019-01-26T19:07:36.321Z,5.50
2019-01-26T19:10:17.062Z,5.50
2019-01-26T19:12:58.304Z,5.50
2019-01-26T19:15:39.563Z,5.50
2019-01-26T19:18:20.677Z,5.50
2019-01-26T19:21:03.445Z,5.50
2019-01-26T19:23:44.670Z,5.50
2019-01-26T19:26:25.514Z,5.50
2019-01-26T19:29:06.097Z,5.50
2019-01-26T19:31:46.650Z,5.40
2019-01-26T19:34:27.387Z,5.40
2019-01-26T19:37:09.341Z,5.30
2019-01-26T19:39:50.405Z,5.40
2019-01-26T19:42:31.093Z,5.40
2019-01-26T19:45:11.517Z,5.30
2019-01-26T19:47:53.007Z,5.40
2019-01-26T19:50:34.124Z,5.40
2019-01-26T19:53:15.485Z,5.40
2019-01-26T19:55:56.448Z,5.30
2019-01-26T19:58:37.137Z,5.30
2019-01-26T20:01:17.666Z,5.30
2019-01-26T20:03:59.056Z,5.20
2019-01-26T20:06:39.750Z,5.20
2019-01-26T20:09:20.460Z,5.20
2019-01-26T20:12:01.229Z,5.10
2019-01-26T20:14:42.156Z,5.20
2019-01-26T20:17:22.832Z,5.10
2019-01-26T20:20:03.320Z,5.20
2019-01-26T20:22:43.806Z,5.20
2019-01-26T20:25:24.584Z,5.20
2019-01-26T20:28:05.088Z,5.20
2019-01-26T20:30:45.547Z,5.10
2019-01-26T20:33:26.174Z,5.10
2019-01-26T20:36:07.240Z,5.00
2019-01-26T20:38:48.113Z,5.10
2019-01-26T20:41:29.465Z,5.00
2019-01-26T20:44:10.711Z,5.00
2019-01-26T20:46:51.845Z,5.00
2019-01-26T20:49:33.248Z,5.00
2019-01-26T20:52:14.334Z,5.10
2019-01-26T20:54:55.118Z,5.00
2019-01-26T20:57:34.496Z,5.10
2019-01-26T21:06:32.021Z,5.00
2019-01-26T21:09:20.196Z,4.90
2019-01-26T21:12:08.432Z,4.90
2019-01-26T21:14:56.683Z,4.90
2019-01-26T21:17:44.820Z,5.00
2019-01-26T21:23:26.641Z,5.10
2019-01-26T21:26:32.590Z,5.00
2019-01-26T21:29:20.814Z,5.00
2019-01-26T21:32:01.726Z,5.00
2019-01-26T21:34:42.527Z,5.00
2019-01-26T21:37:23.812Z,5.00
2019-01-26T21:40:05.162Z,5.00
2019-01-26T21:42:44.586Z,5.00
2019-01-26T21:45:32.869Z,5.00
2019-01-26T21:51:28.470Z,5.00
2019-01-26T21:54:54.793Z,5.00
2019-01-26T22:03:43.928Z,5.10
2019-01-26T22:06:32.093Z,5.10
2019-01-26T22:09:20.324Z,5.00
2019-01-26T22:12:08.579Z,5.00
2019-01-26T22:14:56.765Z,5.00
2019-01-26T22:17:45.004Z,5.00
2019-01-26T22:23:40.517Z,5.10
2019-01-26T22:26:28.709Z,5.10
2019-01-26T22:29:16.871Z,5.20
2019-01-26T22:34:51.626Z,5.20
2019-01-26T22:40:14.800Z,5.20
2019-01-26T22:42:55.719Z,5.20
2019-01-26T22:45:36.385Z,5.30
2019-01-26T22:48:17.782Z,5.20
2019-01-26T22:50:59.214Z,5.20
2019-01-26T22:53:40.645Z,5.10
2019-01-26T22:56:21.938Z,5.20
2019-01-26T22:59:02.469Z,5.20
2019-01-26T23:01:43.258Z,5.20
2019-01-26T23:04:24.308Z,5.20
2019-01-26T23:07:04.905Z,5.20
2019-01-26T23:09:45.452Z,5.20
2019-01-26T23:12:26.073Z,5.10
2019-01-26T23:15:07.460Z,5.10
2019-01-26T23:17:48.227Z,5.10
2019-01-26T23:20:29.432Z,5.10
2019-01-26T23:23:10.489Z,5.10
2019-01-26T23:25:51.904Z,5.20
2019-01-26T23:28:33.129Z,5.20
2019-01-26T23:31:13.995Z,5.30
2019-01-26T23:33:56.541Z,5.30
2019-01-26T23:36:37.824Z,5.30
2019-01-26T23:39:18.317Z,5.20
2019-01-26T23:41:58.822Z,5.20
2019-01-26T23:44:39.490Z,5.10
2019-01-26T23:47:20.177Z,5.10
2019-01-26T23:50:00.578Z,5.00
2019-01-26T23:52:41.489Z,5.00
2019-01-26T23:55:22.844Z,4.90
2019-01-26T23:58:04.204Z,5.00
